Time;durP1;ratioP1;P1;durP2;ratioP2;P2;SDS_P1;SDS_P2;PMS_P1;PMS_P2;Temp;Humidity;BMP_temperature;BMP_pressure;BME280_temperature;BME280_humidity;BME280_pressure;Samples;Min_cycle;Max_cycle;Signal;HPM_P1;HPM_P2
2021/08/30 00:00:10;;;;;;;6.22;4.93;;;;;;;22.83;58.96;99024.72;5032460;28;20536;-50
2021/08/30 00:02:35;;;;;;;8.48;4.72;;;;;;;22.67;59.16;99024.19;5032330;28;20436;-49
2021/08/30 00:05:03;;;;;;;9.57;5.60;;;;;;;22.83;58.88;99030.16;5032235;28;20021;-49
2021/08/30 00:07:28;;;;;;;6.28;4.70;;;;;;;22.76;58.48;99024.31;5031975;28;20021;-50
2021/08/30 00:09:54;;;;;;;6.40;4.90;;;;;;;22.85;58.01;99019.78;5031945;28;20061;-51
2021/08/30 00:12:19;;;;;;;6.90;4.90;;;;;;;22.91;57.77;99021.28;5031985;28;20461;-49
2021/08/30 00:14:45;;;;;;;5.78;4.63;;;;;;;22.69;58.57;99021.19;5032261;28;20028;-50
2021/08/30 00:17:10;;;;;;;6.65;4.68;;;;;;;22.64;58.45;99022.09;5032406;28;20033;-47
2021/08/30 00:19:35;;;;;;;5.90;4.97;;;;;;;22.63;58.38;99025.91;5032560;28;20036;-48
2021/08/30 00:22:01;;;;;;;5.97;4.93;;;;;;;22.39;59.31;99023.38;5032459;28;20029;-50
2021/08/30 00:24:27;;;;;;;6.93;4.88;;;;;;;22.62;59.38;99019.69;5032445;28;20402;-48
2021/08/30 00:26:52;;;;;;;5.72;4.65;;;;;;;22.79;58.95;99016.38;5051915;28;20029;-49
2021/08/30 00:29:20;;;;;;;7.97;4.90;;;;;;;22.53;59.55;99021.50;5051697;28;20022;-48
2021/08/30 00:31:46;;;;;;;5.53;4.50;;;;;;;22.58;59.41;99026.00;5051879;28;20031;-49
2021/08/30 00:34:11;;;;;;;7.30;5.10;;;;;;;22.63;59.50;99032.13;5051560;28;20021;-49
2021/08/30 00:36:37;;;;;;;6.70;4.90;;;;;;;22.74;58.64;99029.25;5050203;28;20013;-48
2021/08/30 00:39:02;;;;;;;6.78;4.93;;;;;;;22.47;59.72;99032.75;5051630;28;20025;-49
2021/08/30 00:41:27;;;;;;;6.88;4.93;;;;;;;22.39;59.73;99031.50;5050123;28;20029;-47
2021/08/30 00:43:53;;;;;;;7.20;5.07;;;;;;;22.48;59.00;99032.41;5051337;28;20396;-47
2021/08/30 00:46:20;;;;;;;7.72;5.05;;;;;;;22.43;58.84;99035.25;5051414;28;20025;-50
2021/08/30 00:48:46;;;;;;;7.93;5.32;;;;;;;22.74;58.01;99035.47;5051128;28;20480;-47
2021/08/30 00:51:15;;;;;;;6.30;5.15;;;;;;;22.40;58.60;99036.63;5051353;28;20029;-47
2021/08/30 00:53:43;;;;;;;5.97;4.85;;;;;;;22.42;57.79;99028.19;5051470;28;20029;-47
2021/08/30 00:56:09;;;;;;;6.35;4.95;;;;;;;22.39;57.49;99034.22;5051328;28;20087;-50
2021/08/30 00:58:34;;;;;;;7.22;5.63;;;;;;;22.39;57.78;99031.50;5050405;28;20021;-48
2021/08/30 01:01:00;;;;;;;8.15;5.50;;;;;;;22.05;58.93;99032.63;5051390;28;20044;-47
2021/08/30 01:03:26;;;;;;;9.38;5.50;;;;;;;22.09;58.97;99039.06;5051333;28;20021;-47
2021/08/30 01:05:54;;;;;;;9.73;5.32;;;;;;;22.20;58.57;99042.38;5051124;28;20024;-48
2021/08/30 01:08:38;;;;;;;8.05;5.88;;;;;;;22.32;58.27;99040.03;5049272;28;20057;-48
2021/08/30 01:11:07;;;;;;;9.15;5.50;;;;;;;21.86;59.10;99046.19;5033250;28;20436;-48
2021/08/30 01:13:51;;;;;;;7.50;5.50;;;;;;;22.22;57.81;99046.41;5049721;28;20025;-50
2021/08/30 01:16:16;;;;;;;6.78;5.35;;;;;;;21.84;58.99;99045.69;5049345;28;20025;-48
2021/08/30 01:18:42;;;;;;;8.50;5.72;;;;;;;21.72;59.57;99042.63;5032829;28;20059;-46
2021/08/30 01:21:22;;;;;;;6.38;5.65;;;;;;;21.98;58.04;99043.03;5032712;28;20071;-47
2021/08/30 01:23:58;;;;;;;6.88;5.55;;;;;;;21.99;58.20;99047.31;5049520;28;20021;-48
2021/08/30 01:26:28;;;;;;;6.78;5.63;;;;;;;21.77;59.05;99045.25;5032730;28;20036;-47
2021/08/30 01:29:00;;;;;;;7.53;5.88;;;;;;;22.06;58.43;99039.63;5029294;28;20044;-50
2021/08/30 01:31:35;;;;;;;8.18;5.82;;;;;;;21.93;58.91;99048.50;5029321;28;20026;-48
2021/08/30 01:34:01;;;;;;;7.35;6.03;;;;;;;22.00;58.96;99041.63;5029522;28;20017;-49
2021/08/30 01:36:26;;;;;;;6.50;5.45;;;;;;;21.91;59.37;99035.25;5030766;28;20037;-47
2021/08/30 01:38:52;;;;;;;7.22;5.72;;;;;;;21.77;59.66;99042.53;5029626;28;20036;-47
2021/08/30 01:41:17;;;;;;;8.15;6.05;;;;;;;21.62;60.34;99047.06;5029951;28;20041;-47
2021/08/30 01:43:46;;;;;;;7.65;5.70;;;;;;;21.43;61.00;99049.75;5029955;28;20091;-49
2021/08/30 01:46:13;;;;;;;8.65;5.53;;;;;;;21.54;61.46;99047.75;5029632;28;20056;-48
2021/08/30 01:48:38;;;;;;;6.53;5.75;;;;;;;21.70;60.65;99050.22;5012881;28;20480;-49
2021/08/30 01:51:04;;;;;;;6.90;5.75;;;;;;;21.69;60.96;99052.13;5028957;28;20104;-48
2021/08/30 01:53:29;;;;;;;7.80;5.65;;;;;;;21.67;61.03;99049.72;5029689;28;20021;-47
2021/08/30 01:55:58;;;;;;;8.75;6.15;;;;;;;21.14;62.64;99057.19;5028701;28;20338;-49
2021/08/30 02:03:31;;;;;;;7.72;6.05;;;;;;;20.85;63.53;99061.59;5030121;28;20470;-47
2021/08/30 02:06:06;;;;;;;8.15;5.75;;;;;;;20.91;63.85;99062.34;5030108;28;20175;-49
2021/08/30 02:08:33;;;;;;;9.57;6.03;;;;;;;20.82;63.60;99055.94;5029608;28;20123;-47
2021/08/30 02:11:00;;;;;;;7.55;5.70;;;;;;;21.09;63.09;99058.03;5029593;28;20143;-47
2021/08/30 02:13:28;;;;;;;10.63;5.80;;;;;;;21.23;62.00;99058.16;5029742;28;20033;-49
2021/08/30 02:15:54;;;;;;;9.88;6.15;;;;;;;21.42;61.98;99064.41;5030039;28;20029;-49
2021/08/30 02:18:35;;;;;;;7.25;5.65;;;;;;;21.36;61.68;99056.63;5030269;28;20025;-47
2021/08/30 02:21:26;;;;;;;8.75;5.88;;;;;;;21.27;62.24;99059.19;5013409;28;20437;-50
2021/08/30 02:24:08;;;;;;;6.78;5.88;;;;;;;20.94;63.42;99060.94;5028954;28;20029;-48
2021/08/30 02:26:56;;;;;;;7.45;5.72;;;;;;;21.07;62.96;99066.44;5048094;28;20068;-46
2021/08/30 02:29:28;;;;;;;7.80;5.85;;;;;;;21.00;63.44;99063.31;5048108;28;20116;-47
2021/08/30 02:32:02;;;;;;;9.10;5.60;;;;;;;20.98;63.11;99057.38;5048261;28;20029;-47
2021/08/30 02:34:27;;;;;;;6.65;5.47;;;;;;;21.33;61.51;99073.47;5049761;28;20055;-46
2021/08/30 02:36:53;;;;;;;6.95;5.38;;;;;;;21.00;62.59;99066.00;5048046;28;20457;-46
2021/08/30 02:39:18;;;;;;;7.40;5.50;;;;;;;21.31;61.79;99068.34;5048069;28;20112;-47
2021/08/30 02:41:44;;;;;;;7.28;5.60;;;;;;;20.95;62.41;99071.47;5048086;28;20382;-48
2021/08/30 02:44:11;;;;;;;6.63;4.93;;;;;;;21.05;61.97;99068.63;5048166;28;20151;-46
2021/08/30 02:46:37;;;;;;;7.72;5.10;;;;;;;21.13;61.82;99069.91;5048326;28;20104;-48
2021/08/30 02:49:02;;;;;;;8.25;5.30;;;;;;;21.12;61.98;99072.91;5031440;28;20028;-48
2021/08/30 02:51:29;;;;;;;7.20;5.57;;;;;;;21.29;61.32;99075.94;5031553;28;20028;-47
2021/08/30 02:53:54;;;;;;;6.35;5.07;;;;;;;20.94;61.53;99074.47;5031588;28;20485;-49
2021/08/30 02:56:20;;;;;;;6.95;5.30;;;;;;;20.96;61.74;99075.81;5031560;28;20443;-49
2021/08/30 02:58:45;;;;;;;6.50;5.30;;;;;;;20.83;62.39;99079.19;5031606;28;20104;-47
2021/08/30 03:01:11;;;;;;;8.02;5.50;;;;;;;21.04;61.26;99068.94;5048480;28;20421;-48
2021/08/30 03:03:36;;;;;;;8.90;5.28;;;;;;;20.87;61.27;99054.00;5032106;28;20029;-50
2021/08/30 03:06:02;;;;;;;8.70;5.28;;;;;;;20.75;62.20;99079.81;5050037;28;20021;-50
2021/08/30 03:08:27;;;;;;;7.00;5.45;;;;;;;20.57;62.09;99079.41;5049342;28;20041;-51
2021/08/30 03:10:53;;;;;;;9.35;6.15;;;;;;;20.69;61.97;99084.47;5049434;28;20036;-48
2021/08/30 03:13:18;;;;;;;9.90;6.68;;;;;;;20.93;60.98;99086.38;5047994;28;20409;-49
2021/08/30 03:15:45;;;;;;;10.65;5.90;;;;;;;20.78;61.39;99090.06;5031295;28;20028;-47
2021/08/30 03:18:11;;;;;;;7.40;5.40;;;;;;;20.91;60.76;99085.88;5047885;28;20047;-49
2021/08/30 03:20:39;;;;;;;8.75;5.03;;;;;;;20.78;61.26;99090.06;5049123;28;20513;-49
2021/08/30 03:23:05;;;;;;;6.20;5.30;;;;;;;20.80;60.82;99091.38;5032793;28;20195;-49
2021/08/30 03:25:32;;;;;;;6.85;5.07;;;;;;;20.91;60.66;99100.19;5042506;28;20158;-48
2021/08/30 03:27:57;;;;;;;6.72;4.80;;;;;;;20.54;61.58;99101.59;5031817;28;20029;-48
2021/08/30 03:30:23;;;;;;;7.70;5.13;;;;;;;20.75;60.47;99110.34;5031547;28;20092;-48
2021/08/30 03:32:48;;;;;;;7.10;5.30;;;;;;;21.08;59.96;99111.34;5032582;28;20095;-47
2021/08/30 03:35:14;;;;;;;7.10;5.10;;;;;;;21.03;59.36;99107.91;5032647;28;20029;-48
2021/08/30 03:37:41;;;;;;;7.32;5.18;;;;;;;20.91;59.67;99110.22;5033008;28;20033;-47
2021/08/30 03:40:07;;;;;;;9.65;5.95;;;;;;;20.94;59.10;99110.41;5015041;28;20456;-48
2021/08/30 03:42:32;;;;;;;6.65;5.05;;;;;;;20.84;59.48;99118.66;5015261;28;20029;-47
2021/08/30 03:44:58;;;;;;;7.15;4.82;;;;;;;20.64;60.09;99123.19;5031906;28;20028;-47
2021/08/30 03:47:23;;;;;;;7.45;5.20;;;;;;;20.62;59.91;99130.75;5015334;28;20021;-48
2021/08/30 03:49:49;;;;;;;6.00;4.97;;;;;;;20.56;60.44;99128.34;5031643;28;20468;-50
2021/08/30 03:52:14;;;;;;;7.35;5.00;;;;;;;20.63;60.35;99132.34;5030943;28;20033;-49
2021/08/30 03:54:40;;;;;;;6.35;4.75;;;;;;;20.49;60.58;99128.69;5030966;28;20060;-49
2021/08/30 03:57:05;;;;;;;6.43;4.50;;;;;;;20.46;60.33;99132.75;5031941;28;20393;-47
2021/08/30 03:59:33;;;;;;;8.32;4.95;;;;;;;20.65;59.42;99132.88;5032175;28;20034;-50
2021/08/30 04:01:59;;;;;;;7.53;5.00;;;;;;;20.62;60.28;99144.28;5014876;28;20132;-48
2021/08/30 04:04:24;;;;;;;8.80;5.22;;;;;;;20.72;59.63;99148.78;5030882;28;20025;-48
2021/08/30 04:06:50;;;;;;;12.55;5.18;;;;;;;20.84;58.92;99130.25;5030581;28;20037;-49
2021/08/30 04:09:19;;;;;;;6.55;5.00;;;;;;;20.62;59.14;99149.69;5029910;28;20513;-50
2021/08/30 04:11:45;;;;;;;;;;;;;;;20.45;60.31;99141.97;5031893;28;20047;-50
2021/08/30 04:14:12;;;;;;;8.27;5.03;;;;;;;20.55;59.43;99151.06;5031218;28;19992;-47
2021/08/30 04:16:38;;;;;;;10.45;5.07;;;;;;;20.73;58.79;99144.97;5030157;28;20520;-47
2021/08/30 04:19:04;;;;;;;8.20;5.30;;;;;;;20.72;58.51;99140.66;5031314;28;20033;-48
2021/08/30 04:21:29;;;;;;;6.10;5.13;;;;;;;20.73;58.83;99150.38;5031619;28;20029;-50
2021/08/30 04:23:55;;;;;;;7.88;4.97;;;;;;;20.56;58.98;99152.66;5031822;28;20025;-48
2021/08/30 04:26:20;;;;;;;6.72;4.65;;;;;;;20.70;58.48;99156.38;5047454;28;20415;-47
2021/08/30 04:28:46;;;;;;;20.45;12.65;;;;;;;21.12;57.68;99173.00;5051061;28;20017;-47
2021/08/30 04:31:11;;;;;;;8.68;5.20;;;;;;;21.27;56.93;99170.94;5051588;28;20125;-47
2021/08/30 04:33:37;;;;;;;6.32;4.85;;;;;;;21.62;56.07;99174.31;5050972;28;20024;-37
2021/08/30 04:36:02;;;;;;;6.30;4.95;;;;;;;21.52;56.32;99179.88;5049774;28;20392;-36
2021/08/30 04:38:28;;;;;;;8.98;4.90;;;;;;;21.58;55.62;99176.00;5051136;28;20028;-37
2021/08/30 04:40:53;;;;;;;5.38;4.85;;;;;;;21.50;55.78;99181.25;5040166;28;20133;-36
2021/08/30 04:43:19;;;;;;;7.18;4.68;;;;;;;21.59;55.57;99191.16;5029862;28;20080;-36
2021/08/30 04:45:44;;;;;;;10.27;4.85;;;;;;;21.75;54.79;99175.50;5030204;28;20519;-37
2021/08/30 04:48:10;;;;;;;18.63;13.40;;;;;;;21.98;54.50;99179.25;5030570;28;20038;-37
2021/08/30 04:50:35;;;;;;;8.35;5.10;;;;;;;22.29;53.52;99175.31;5029930;28;20029;-37
2021/08/30 04:53:00;;;;;;;10.02;4.85;;;;;;;22.65;52.67;99181.75;5029975;28;20465;-36
2021/08/30 04:55:26;;;;;;;9.38;5.57;;;;;;;22.65;52.36;99181.75;5030014;28;20645;-37
2021/08/30 04:57:51;;;;;;;8.40;5.75;;;;;;;22.46;52.95;99183.72;5030106;28;20044;-38
2021/08/30 05:00:17;;;;;;;7.28;5.15;;;;;;;22.71;52.00;99177.06;5029656;28;20088;-37
2021/08/30 05:02:42;;;;;;;9.93;5.10;;;;;;;22.88;51.33;99181.91;5030095;28;20530;-37
2021/08/30 05:05:08;;;;;;;5.75;4.95;;;;;;;22.59;51.67;99176.75;5030957;28;20493;-37
2021/08/30 05:07:34;;;;;;;6.30;5.13;;;;;;;22.37;52.81;99188.19;5041485;28;20029;-37
2021/08/30 05:09:59;;;;;;;7.65;4.57;;;;;;;22.96;51.16;99183.97;5051000;28;20051;-37
2021/08/30 05:12:26;;;;;;;11.00;4.65;;;;;;;22.69;51.33;99189.31;5050757;28;20431;-36
2021/08/30 05:14:55;;;;;;;5.40;4.53;;;;;;;22.53;51.20;99189.56;5050485;28;20019;-36
2021/08/30 05:17:21;;;;;;;6.35;4.50;;;;;;;22.78;50.86;99201.09;5050342;28;20436;-43
2021/08/30 05:19:46;;;;;;;6.30;4.20;;;;;;;22.56;51.33;99190.88;5050025;28;20461;-37
2021/08/30 05:22:13;;;;;;;7.00;4.47;;;;;;;23.27;49.58;99198.91;5050670;28;20028;-37
2021/08/30 05:24:42;;;;;;;5.03;4.15;;;;;;;23.31;48.95;99191.75;5048284;28;20108;-36
2021/08/30 05:27:07;;;;;;;6.60;4.90;;;;;;;23.90;48.02;99197.38;5030132;28;20026;-37
2021/08/30 05:29:33;;;;;;;6.60;5.10;;;;;;;23.88;47.75;99191.44;5030086;28;20079;-37
2021/08/30 05:31:58;;;;;;;6.68;4.50;;;;;;;24.14;46.96;99200.63;5030062;28;20025;-36
2021/08/30 05:34:24;;;;;;;5.15;4.10;;;;;;;23.41;48.54;99200.50;5030301;28;20129;-37
2021/08/30 05:36:49;;;;;;;7.40;4.22;;;;;;;23.90;47.41;99187.31;5030661;28;20444;-36
2021/08/30 05:39:15;;;;;;;6.35;4.80;;;;;;;24.17;46.37;99193.78;5030267;28;20025;-36
2021/08/30 05:41:41;;;;;;;4.32;3.90;;;;;;;24.57;45.47;99208.34;5030226;28;20480;-37
2021/08/30 05:44:07;;;;;;;4.97;3.92;;;;;;;24.87;44.79;99203.25;5029865;28;20022;-37
2021/08/30 05:46:33;;;;;;;6.43;4.07;;;;;;;25.39;43.94;99207.38;5030254;28;20025;-37
2021/08/30 05:48:58;;;;;;;5.00;3.70;;;;;;;25.14;43.72;99213.16;5030066;28;20056;-37
2021/08/30 05:51:24;;;;;;;4.93;4.00;;;;;;;25.14;43.66;99215.09;5030073;28;20367;-36
2021/08/30 05:53:49;;;;;;;5.15;4.18;;;;;;;24.97;43.95;99216.59;5030128;28;20048;-38
2021/08/30 05:56:15;;;;;;;4.85;4.20;;;;;;;24.92;44.03;99219.47;5030191;28;20021;-36
2021/08/30 05:58:40;;;;;;;7.30;4.00;;;;;;;25.08;43.54;99217.13;5029829;28;20025;-36
2021/08/30 06:01:05;;;;;;;4.53;3.80;;;;;;;24.71;44.37;99215.63;5029934;28;20026;-37
2021/08/30 06:03:31;;;;;;;5.28;3.70;;;;;;;24.76;44.07;99208.16;5029421;28;20017;-37
2021/08/30 06:05:57;;;;;;;5.28;3.78;;;;;;;24.84;44.36;99217.47;5029444;28;20037;-37
2021/08/30 06:08:22;;;;;;;9.35;4.15;;;;;;;24.49;44.90;99224.59;5029827;28;20180;-38
2021/08/30 06:10:48;;;;;;;5.60;4.00;;;;;;;24.44;44.93;99222.78;5029740;28;20695;-37
2021/08/30 06:13:14;;;;;;;6.10;3.83;;;;;;;25.06;43.54;99221.28;5029985;28;20026;-37
2021/08/30 06:15:39;;;;;;;6.50;4.00;;;;;;;25.62;42.40;99222.50;5029737;28;20417;-37
2021/08/30 06:18:05;;;;;;;4.57;3.60;;;;;;;25.92;41.53;99228.22;5029648;28;20029;-37
2021/08/30 06:20:30;;;;;;;4.35;3.75;;;;;;;26.12;40.79;99226.78;5029402;28;20025;-37
2021/08/30 06:22:56;;;;;;;6.57;3.42;;;;;;;26.26;40.66;99229.38;5029254;28;20100;-37
2021/08/30 06:25:21;;;;;;;5.40;3.55;;;;;;;26.25;40.58;99222.31;5037318;28;20029;-37
2021/08/30 06:27:47;;;;;;;8.15;3.58;;;;;;;26.50;39.91;99217.97;5049664;28;20302;-37
2021/08/30 06:30:12;;;;;;;4.93;3.63;;;;;;;26.43;39.99;99215.72;5049309;28;20021;-37
2021/08/30 06:32:38;;;;;;;6.03;3.78;;;;;;;25.59;42.15;99211.41;5048327;28;20491;-37
2021/08/30 06:35:03;;;;;;;3.90;3.50;;;;;;;26.37;41.00;99224.38;5049707;28;20347;-37
2021/08/30 06:37:29;;;;;;;3.70;3.15;;;;;;;26.95;39.38;99203.94;5049163;28;20017;-37
2021/08/30 06:39:54;;;;;;;4.38;3.30;;;;;;;27.95;37.71;99212.69;5049243;28;20044;-38
2021/08/30 06:42:20;;;;;;;6.85;3.65;;;;;;;27.44;38.13;99211.84;5049072;28;20485;-38
2021/08/30 06:44:45;;;;;;;5.38;3.10;;;;;;;26.92;38.46;99223.69;5049139;28;20067;-38
2021/08/30 06:47:11;;;;;;;3.90;3.33;;;;;;;26.49;39.46;99219.88;5048723;28;20094;-37
2021/08/30 06:49:36;;;;;;;5.80;3.28;;;;;;;26.09;40.29;99239.13;5048884;28;20319;-37
2021/08/30 06:52:02;;;;;;;5.90;3.92;;;;;;;26.73;39.76;99234.97;5049228;28;20021;-38
2021/08/30 06:54:27;;;;;;;5.15;3.58;;;;;;;27.37;38.21;99242.38;5048861;28;20382;-37
2021/08/30 06:56:53;;;;;;;4.88;2.90;;;;;;;26.81;39.13;99238.84;5048810;28;20032;-36
2021/08/30 06:59:18;;;;;;;3.55;3.25;;;;;;;27.29;38.33;99238.56;5052717;28;20044;-38
2021/08/30 07:01:44;;;;;;;5.10;3.05;;;;;;;27.70;37.66;99241.72;5052816;28;20516;-37
2021/08/30 07:04:10;;;;;;;3.88;3.20;;;;;;;28.24;37.05;99241.09;5052709;28;20051;-37
2021/08/30 07:06:35;;;;;;;7.47;3.30;;;;;;;29.11;35.56;99226.63;5052969;28;20104;-37
2021/08/30 07:09:02;;;;;;;5.28;3.15;;;;;;;27.66;37.23;99243.53;5052768;28;20417;-37
2021/08/30 07:11:29;;;;;;;7.63;3.40;;;;;;;27.54;37.74;99244.22;5053284;28;20105;-38
2021/08/30 07:13:54;;;;;;;4.38;3.10;;;;;;;27.90;37.15;99248.41;5053206;28;20027;-38
2021/08/30 07:16:20;;;;;;;4.22;2.95;;;;;;;27.77;37.02;99252.16;5052601;28;20460;-38
2021/08/30 07:18:45;;;;;;;5.10;3.75;;;;;;;27.63;37.32;99253.19;5052460;28;20023;-36
2021/08/30 07:21:11;;;;;;;5.53;3.03;;;;;;;27.50;37.62;99255.00;5052303;28;20029;-37
2021/08/30 07:23:37;;;;;;;5.47;3.08;;;;;;;28.24;36.78;99260.25;5051670;28;20094;-37
2021/08/30 07:26:03;;;;;;;4.57;3.28;;;;;;;27.37;38.08;99258.78;5038656;28;20037;-37
2021/08/30 07:28:29;;;;;;;4.43;2.95;;;;;;;28.10;36.49;99256.97;5032258;28;20032;-36
2021/08/30 07:30:54;;;;;;;7.00;3.42;;;;;;;28.85;35.28;99249.59;5032615;28;20029;-37
2021/08/30 07:33:19;;;;;;;4.10;3.50;;;;;;;28.11;36.70;99247.66;5051175;28;20430;-38
2021/08/30 07:35:45;;;;;;;4.30;3.20;;;;;;;27.75;36.97;99251.69;5040266;28;20489;-38
2021/08/30 07:38:10;;;;;;;6.45;3.13;;;;;;;27.47;37.65;99252.97;5041226;28;20025;-37
2021/08/30 07:40:36;;;;;;;4.30;2.90;;;;;;;28.57;36.06;99257.59;5038762;28;20083;-38
2021/08/30 07:43:01;;;;;;;5.28;3.30;;;;;;;28.26;36.39;99247.84;5048104;28;20409;-37
2021/08/30 07:45:27;;;;;;;5.35;3.17;;;;;;;28.02;37.11;99244.97;5047824;28;20044;-37
2021/08/30 07:47:52;;;;;;;5.82;3.10;;;;;;;28.30;36.62;99253.44;5039052;28;20649;-38
2021/08/30 07:50:19;;;;;;;4.30;2.90;;;;;;;27.60;37.44;99248.38;5041440;28;20119;-38
2021/08/30 07:52:45;;;;;;;5.30;2.90;;;;;;;28.05;36.71;99245.09;5046354;28;20031;-37
2021/08/30 07:55:11;;;;;;;5.90;2.97;;;;;;;28.10;36.36;99244.09;5035375;28;20079;-38
2021/08/30 07:57:36;;;;;;;3.80;3.10;;;;;;;28.75;35.61;99241.00;5046422;28;20064;-37
2021/08/30 08:00:03;;;;;;;5.22;2.95;;;;;;;29.03;34.75;99242.00;5039707;28;20021;-38
2021/08/30 08:02:29;;;;;;;4.25;2.92;;;;;;;28.70;35.83;99244.75;5039948;28;20035;-37
2021/08/30 08:04:54;;;;;;;4.05;3.10;;;;;;;28.69;35.34;99243.16;5047244;28;20021;-37
2021/08/30 08:07:20;;;;;;;6.72;3.00;;;;;;;28.81;35.21;99248.69;5032761;28;20414;-37
2021/08/30 08:09:45;;;;;;;3.45;3.10;;;;;;;28.60;35.49;99242.44;5036639;28;20037;-37
2021/08/30 08:12:10;;;;;;;5.25;3.00;;;;;;;28.88;34.76;99241.84;5042611;28;20040;-37
2021/08/30 08:14:36;;;;;;;3.58;2.92;;;;;;;28.94;34.37;99235.00;5044821;28;20024;-37
2021/08/30 08:17:01;;;;;;;3.33;3.03;;;;;;;27.84;36.46;99244.25;5035503;28;20446;-37
2021/08/30 08:19:27;;;;;;;5.03;3.00;;;;;;;28.31;36.53;99243.28;5047679;28;20021;-37
2021/08/30 08:21:55;;;;;;;6.53;3.22;;;;;;;29.08;34.50;99251.94;5038936;28;20104;-37
2021/08/30 08:24:22;;;;;;;4.40;3.00;;;;;;;29.49;34.07;99243.91;5041014;28;20032;-38
2021/08/30 08:26:47;;;;;;;3.30;2.90;;;;;;;29.70;33.39;99247.34;5032100;28;20053;-38
2021/08/30 08:29:13;;;;;;;3.40;2.70;;;;;;;29.86;33.50;99242.00;5033485;28;20023;-38
2021/08/30 08:31:38;;;;;;;4.10;3.00;;;;;;;30.20;32.19;99254.38;5044796;28;20056;-39
2021/08/30 08:34:04;;;;;;;3.72;2.83;;;;;;;30.50;31.73;99251.34;5032238;28;20408;-37
2021/08/30 08:36:29;;;;;;;6.07;3.15;;;;;;;30.52;31.98;99240.81;5044067;28;20016;-37
2021/08/30 08:38:55;;;;;;;4.63;3.03;;;;;;;30.34;32.05;99248.53;5029968;28;20083;-37
2021/08/30 08:41:20;;;;;;;4.03;3.17;;;;;;;29.77;33.17;99236.63;5047567;28;20029;-37
2021/08/30 08:43:46;;;;;;;4.32;2.97;;;;;;;29.49;33.51;99235.69;5036884;28;20036;-37
2021/08/30 08:46:11;;;;;;;5.90;2.80;;;;;;;29.58;32.98;99247.34;5039699;28;20030;-37
2021/08/30 08:48:37;;;;;;;3.13;2.83;;;;;;;29.91;32.38;99228.06;5044004;28;20173;-37
2021/08/30 08:51:02;;;;;;;3.50;3.10;;;;;;;29.85;32.97;99234.09;5032597;28;20021;-38
2021/08/30 08:53:28;;;;;;;4.53;3.08;;;;;;;29.40;33.07;99231.13;5046558;28;20028;-38
2021/08/30 08:55:53;;;;;;;3.58;3.05;;;;;;;29.48;33.22;99234.09;5037485;28;20059;-38
2021/08/30 08:58:20;;;;;;;4.88;3.00;;;;;;;29.35;33.37;99233.28;5039464;28;20033;-37
2021/08/30 09:00:59;;;;;;;6.47;3.38;;;;;;;29.31;33.96;99232.38;5044697;28;20044;-38
2021/08/30 09:03:25;;;;;;;;;;;;;;;29.27;33.35;99226.78;5034628;28;20013;-37
2021/08/30 09:06:01;;;;;;;5.28;3.28;;;;;;;30.08;32.48;99231.66;5043441;28;20270;-37
2021/08/30 09:08:37;;;;;;;3.92;2.88;;;;;;;29.74;32.76;99226.34;5035567;28;20050;-38
2021/08/30 09:11:03;;;;;;;3.38;2.80;;;;;;;29.90;32.30;99211.94;5029962;28;20033;-37
2021/08/30 09:13:29;;;;;;;3.60;3.20;;;;;;;30.38;31.76;99223.94;5029479;28;20029;-37
2021/08/30 09:15:56;;;;;;;3.60;2.90;;;;;;;30.51;31.58;99230.19;5038725;28;20036;-38
2021/08/30 09:18:26;;;;;;;4.00;2.80;;;;;;;30.36;31.96;99229.78;5038922;28;20032;-37
2021/08/30 09:20:51;;;;;;;3.20;2.90;;;;;;;30.02;31.87;99223.69;5044790;28;20029;-38
2021/08/30 09:23:17;;;;;;;5.20;3.30;;;;;;;29.57;32.25;99223.84;5047757;28;20032;-38
2021/08/30 09:25:43;;;;;;;3.72;2.88;;;;;;;30.13;32.10;99223.19;5035078;28;20025;-37
2021/08/30 09:28:08;;;;;;;4.55;2.95;;;;;;;30.00;32.26;99223.22;5028723;28;20081;-38
2021/08/30 09:30:34;;;;;;;3.22;2.90;;;;;;;30.54;31.56;99219.31;5042485;28;20021;-38
2021/08/30 09:33:00;;;;;;;3.50;2.70;;;;;;;31.01;31.37;99223.31;5033499;28;20029;-37
2021/08/30 09:35:25;;;;;;;5.53;3.00;;;;;;;31.26;30.44;99223.13;5046139;28;20041;-37
2021/08/30 09:37:51;;;;;;;4.93;2.90;;;;;;;31.36;29.99;99212.41;5038323;28;20021;-37
2021/08/30 09:40:22;;;;;;;5.15;3.30;;;;;;;31.30;30.79;99216.59;5037834;28;20036;-37
2021/08/30 09:42:52;;;;;;;4.15;3.08;;;;;;;31.08;30.30;99212.50;5037361;28;20025;-37
2021/08/30 09:45:22;;;;;;;5.40;3.53;;;;;;;31.42;29.94;99212.16;5039410;28;20143;-38
2021/08/30 09:47:58;;;;;;;5.13;3.97;;;;;;;31.33;30.12;99215.06;5034934;28;20065;-37
2021/08/30 09:50:30;;;;;;;6.78;3.30;;;;;;;31.05;30.36;99204.16;5035973;28;20107;-38
2021/08/30 09:52:56;;;;;;;5.60;3.47;;;;;;;30.93;31.10;99213.28;5039331;28;20029;-37
2021/08/30 09:55:22;;;;;;;6.57;5.10;;;;;;;31.05;30.84;99212.41;5036349;28;20090;-37
2021/08/30 09:57:49;;;;;;;8.88;4.88;;;;;;;31.25;29.79;99208.59;5040694;28;20033;-37
2021/08/30 10:00:16;;;;;;;3.88;3.22;;;;;;;31.15;30.62;99209.94;5039604;28;20501;-38
2021/08/30 10:02:43;;;;;;;5.50;3.55;;;;;;;31.43;29.94;99209.03;5040200;28;20122;-38
2021/08/30 10:05:09;;;;;;;8.32;5.22;;;;;;;30.95;30.63;99213.75;5030807;28;20025;-47
2021/08/30 10:07:35;;;;;;;4.85;2.95;;;;;;;30.73;30.29;99212.34;5042005;28;20120;-50
2021/08/30 10:10:01;;;;;;;4.65;3.17;;;;;;;30.65;30.39;99210.56;5040015;28;20037;-48
2021/08/30 10:12:26;;;;;;;3.00;2.70;;;;;;;31.06;30.10;99208.53;5033172;28;20037;-48
2021/08/30 10:14:52;;;;;;;4.00;2.70;;;;;;;31.05;30.24;99206.91;5036022;28;20025;-37
2021/08/30 10:17:18;;;;;;;5.85;2.80;;;;;;;31.07;29.75;99204.63;5039083;28;20032;-37
2021/08/30 10:19:43;;;;;;;7.00;2.88;;;;;;;31.19;29.87;99196.28;5033640;28;20029;-37
2021/08/30 10:22:19;;;;;;;4.63;2.80;;;;;;;30.59;29.92;99204.53;5039262;28;20035;-37
2021/08/30 10:24:45;;;;;;;4.63;3.80;;;;;;;31.23;29.82;99193.63;5034277;28;20013;-45
2021/08/30 10:27:10;;;;;;;3.80;2.67;;;;;;;31.50;28.54;99189.19;5029903;28;20024;-38
2021/08/30 10:29:38;;;;;;;6.40;3.33;;;;;;;31.25;28.81;99194.09;5042300;28;20017;-38
2021/08/30 10:32:04;;;;;;;6.38;3.15;;;;;;;31.16;28.64;99197.00;5037301;28;20067;-38
2021/08/30 10:34:34;;;;;;;6.15;3.50;;;;;;;30.93;28.94;99192.09;5036901;28;20037;-37
2021/08/30 10:37:00;;;;;;;4.00;2.90;;;;;;;31.35;28.29;99199.81;5045817;28;20033;-38
2021/08/30 10:39:41;;;;;;;4.47;2.83;;;;;;;31.85;27.52;99196.66;5032879;28;20355;-37
2021/08/30 10:42:12;;;;;;;3.88;2.75;;;;;;;31.74;27.49;99194.47;5039541;28;20512;-37
2021/08/30 10:45:02;;;;;;;4.72;2.78;;;;;;;31.41;28.38;99192.09;5041971;28;20025;-37
2021/08/30 10:47:35;;;;;;;3.20;2.80;;;;;;;31.44;28.16;99193.34;5032487;28;20013;-37
2021/08/30 10:50:00;;;;;;;5.22;2.35;;;;;;;31.98;26.21;99187.09;5039883;28;20025;-37
2021/08/30 10:52:36;;;;;;;3.83;2.65;;;;;;;31.60;26.95;99187.84;5040105;28;20030;-37
2021/08/30 10:55:01;;;;;;;4.82;2.60;;;;;;;31.81;26.77;99190.28;5031785;28;20021;-37
2021/08/30 10:57:39;;;;;;;3.53;2.80;;;;;;;31.63;26.45;99173.41;5031970;28;20021;-38
2021/08/30 11:00:06;;;;;;;3.25;2.75;;;;;;;31.38;26.93;99177.13;5039614;28;20022;-37
2021/08/30 11:02:50;;;;;;;2.97;2.67;;;;;;;31.89;26.31;99173.59;5040804;28;20031;-37
2021/08/30 11:05:24;;;;;;;2.95;2.47;;;;;;;31.31;26.89;99182.44;5031681;28;20017;-37
2021/08/30 11:07:52;;;;;;;3.00;2.70;;;;;;;32.05;25.48;99181.00;5048302;28;20033;-38
2021/08/30 11:10:19;;;;;;;3.53;3.00;;;;;;;31.66;26.23;99183.66;5048542;28;20048;-38
2021/08/30 11:12:45;;;;;;;3.65;3.10;;;;;;;31.85;25.80;99182.91;5048883;28;20029;-38
2021/08/30 11:15:10;;;;;;;3.33;2.67;;;;;;;31.98;25.42;99183.56;5031062;28;20029;-37
2021/08/30 11:17:36;;;;;;;3.17;2.30;;;;;;;32.37;24.11;99176.16;5031180;28;20061;-38
2021/08/30 11:20:02;;;;;;;3.15;2.42;;;;;;;31.96;24.93;99173.72;5044994;28;20045;-38
2021/08/30 11:22:27;;;;;;;4.93;2.88;;;;;;;32.47;24.80;99177.50;5028598;28;20516;-38
2021/08/30 11:24:53;;;;;;;4.50;2.50;;;;;;;32.15;25.42;99174.91;5034083;28;20025;-38
2021/08/30 11:27:21;;;;;;;4.80;2.70;;;;;;;32.21;24.98;99178.97;5041675;28;20028;-38
2021/08/30 11:29:48;;;;;;;4.07;2.67;;;;;;;32.65;24.81;99188.88;5031420;28;20022;-38
2021/08/30 11:32:14;;;;;;;3.67;2.35;;;;;;;32.43;24.51;99174.69;5032822;28;20453;-38
2021/08/30 11:34:40;;;;;;;3.22;2.20;;;;;;;32.80;23.08;99173.41;5040448;28;20033;-38
2021/08/30 11:37:07;;;;;;;3.53;2.60;;;;;;;32.26;24.76;99173.16;5039987;28;20353;-37